KCDC

Cedar City Regional Airport

Cedar City, Utah, USA
METAR KCDC 170353Z AUTO 12004KT 10SM CLR 04/M03 A3023 RMK AO2 SLP232 T00391033
Observed Flight Rules
Oct-17 @ 03:53 UTC (10 minutes ago) Visual Flight Rules
Wind Visibility Clouds
120° at 4 knots 10 miles
  • Clear skies
Temperatures Readings
Current 4°C / 39°F
Dewpoint -3°C / 27°F
Humidity 61%
Altimeter 30.23" Hg
Pressure 1023.2 hPa
Elevation 1714
METAR KCDC 170353Z AUTO 12004KT 10SM CLR 04/M03 A3023 RMK AO2 SLP232 T00391033
Observed Flight Rules
Oct-17 @ 03:53 UTC
(10 minutes ago)
VFR
Wind Visibility
120° at 4 knots 10 miles
Clouds
  • Clear skies
Temperature Dewpoint
4°C / 39°F -3°C / 27°F
Humidity Altimeter Pressure
61% 30.23" Hg 1023.2 hPa